createdAt,value
2022-11-21T00:10:34.509Z,91.13
2022-11-21T00:15:36.822Z,84.10
2022-11-21T00:20:40.559Z,82.73
2022-11-21T00:25:43.634Z,75.47
2022-11-21T00:30:46.215Z,85.50
2022-11-21T00:35:48.550Z,72.33
2022-11-21T00:40:50.896Z,71.67
2022-11-21T00:45:53.198Z,67.53
2022-11-21T00:50:55.673Z,63.93
2022-11-21T00:55:58.257Z,62.93
2022-11-21T01:01:12.545Z,83.10
2022-11-21T01:06:15.437Z,105.30
2022-11-21T01:11:19.547Z,93.10
2022-11-21T01:16:24.521Z,59.03
2022-11-21T01:21:29.669Z,87.67
2022-11-21T01:26:38.107Z,155.73
2022-11-21T01:31:40.441Z,77.00
2022-11-21T01:36:43.046Z,63.67
2022-11-21T01:41:45.960Z,72.57
2022-11-21T01:46:49.529Z,60.03
2022-11-21T01:52:09.654Z,51.97
2022-11-21T01:57:27.032Z,47.67
2022-11-21T02:02:36.862Z,65.73
2022-11-21T02:07:43.151Z,56.20
2022-11-21T02:12:56.283Z,49.83
2022-11-21T02:17:58.560Z,53.70
2022-11-21T02:23:18.772Z,53.80
2022-11-21T02:28:23.895Z,51.40
2022-11-21T02:33:26.237Z,56.80
2022-11-21T02:38:35.588Z,56.27
2022-11-21T02:43:43.862Z,60.47
2022-11-21T02:48:46.790Z,55.30
2022-11-21T02:53:49.113Z,76.63
2022-11-21T02:58:51.471Z,117.10
2022-11-21T03:03:53.726Z,62.27
2022-11-21T03:08:56.035Z,65.07
2022-11-21T03:13:58.576Z,44.33
2022-11-21T03:19:01.086Z,54.73
2022-11-21T03:24:03.587Z,46.27
2022-11-21T03:29:05.948Z,63.93
2022-11-21T03:34:09.014Z,40.90
2022-11-21T03:39:11.493Z,51.83
2022-11-21T03:44:13.967Z,38.70
2022-11-21T03:49:16.849Z,57.43
2022-11-21T03:54:19.127Z,48.53
2022-11-21T03:59:21.446Z,55.97
2022-11-21T04:04:23.706Z,42.97
2022-11-21T04:09:26.072Z,39.63
2022-11-21T04:14:28.562Z,43.67
2022-11-21T04:19:31.028Z,59.10
2022-11-21T04:24:33.333Z,46.47
2022-11-21T04:29:35.630Z,42.17
2022-11-21T04:34:39.652Z,73.73
2022-11-21T04:39:41.966Z,53.83
2022-11-21T04:44:44.199Z,35.47
2022-11-21T04:49:46.517Z,41.37
2022-11-21T04:54:48.844Z,43.37
2022-11-21T04:59:51.126Z,53.37
2022-11-21T05:04:53.496Z,55.50
2022-11-21T05:09:55.757Z,63.40
2022-11-21T05:14:58.402Z,67.07
2022-11-21T05:20:00.877Z,54.80
2022-11-21T05:25:03.554Z,51.80
2022-11-21T05:30:06.371Z,56.90
2022-11-21T05:35:09.052Z,62.23
2022-11-21T05:40:11.706Z,58.33
2022-11-21T05:45:14.048Z,57.73
2022-11-21T05:50:16.647Z,81.73
2022-11-21T05:55:18.947Z,71.40
2022-11-21T06:00:21.377Z,69.87
2022-11-21T06:05:23.642Z,83.93
2022-11-21T06:10:25.922Z,74.40
2022-11-21T06:15:29.513Z,60.20
2022-11-21T06:20:31.801Z,55.70
2022-11-21T06:25:34.271Z,70.43
2022-11-21T06:30:36.754Z,76.13
2022-11-21T06:35:39.218Z,65.47
2022-11-21T06:40:41.546Z,61.67
2022-11-21T06:45:43.811Z,51.40
2022-11-21T06:50:46.110Z,67.30
2022-11-21T06:55:48.456Z,64.90
2022-11-21T07:00:50.816Z,71.13
2022-11-21T07:05:58.491Z,63.03
2022-11-21T07:16:31.076Z,63.93
2022-11-21T07:21:33.553Z,50.13
2022-11-21T07:26:35.844Z,48.70
2022-11-21T07:31:38.424Z,54.80
2022-11-21T07:36:41.129Z,58.50
2022-11-21T07:41:44.502Z,73.97
2022-11-21T07:46:46.822Z,64.17
2022-11-21T07:51:50.510Z,59.77
2022-11-21T07:56:52.866Z,62.40
2022-11-21T08:01:55.333Z,65.10
2022-11-21T08:06:57.827Z,66.53
2022-11-21T08:12:00.178Z,85.53
2022-11-21T08:17:04.100Z,74.10
2022-11-21T08:22:06.378Z,61.93
2022-11-21T08:27:08.659Z,63.93
2022-11-21T08:32:13.225Z,78.60
2022-11-21T08:37:15.490Z,77.83
2022-11-21T08:42:17.819Z,80.10
2022-11-21T08:47:20.637Z,77.57
2022-11-21T08:52:23.299Z,56.13
2022-11-21T08:57:25.592Z,59.90
2022-11-21T09:02:27.845Z,61.37
2022-11-21T09:07:30.150Z,77.97
2022-11-21T09:12:32.408Z,100.10
2022-11-21T09:17:53.379Z,81.37
2022-11-21T09:22:55.605Z,88.73
2022-11-21T09:28:03.347Z,83.93
2022-11-21T09:33:08.356Z,76.30
2022-11-21T09:38:10.955Z,73.27
2022-11-21T09:43:46.467Z,82.13
2022-11-21T09:48:54.579Z,85.37
2022-11-21T09:54:27.324Z,69.57
2022-11-21T09:59:38.839Z,71.37
2022-11-21T10:04:41.441Z,68.73
2022-11-21T10:10:03.784Z,69.77
2022-11-21T10:15:43.687Z,57.70
2022-11-21T10:21:23.065Z,71.20
2022-11-21T10:26:58.099Z,89.57
2022-11-21T10:32:13.470Z,94.10
2022-11-21T10:37:38.638Z,86.93
2022-11-21T10:42:46.456Z,106.53
2022-11-21T10:47:50.954Z,83.80
2022-11-21T10:52:58.857Z,94.10
2022-11-21T10:58:17.471Z,110.07
2022-11-21T11:03:20.910Z,91.80
2022-11-21T11:08:23.171Z,75.60
2022-11-21T11:13:50.945Z,76.63
2022-11-21T11:19:03.301Z,80.30
2022-11-21T11:24:15.018Z,58.53
2022-11-21T11:29:21.631Z,70.00
2022-11-21T11:34:28.425Z,62.57
2022-11-21T11:39:40.437Z,57.37
2022-11-21T11:45:33.415Z,60.47
2022-11-21T11:50:44.737Z,59.33
2022-11-21T11:55:55.849Z,56.93
2022-11-21T12:01:10.738Z,61.93
2022-11-21T12:07:07.197Z,57.70
2022-11-21T12:12:15.790Z,54.40
2022-11-21T12:17:24.562Z,59.20
2022-11-21T12:22:27.060Z,55.17
2022-11-21T12:27:32.690Z,63.90
2022-11-21T12:32:49.576Z,69.80
2022-11-21T12:38:06.705Z,60.80
2022-11-21T12:43:29.402Z,55.83
2022-11-21T12:49:07.000Z,59.77
2022-11-21T12:54:37.849Z,63.10
2022-11-21T13:00:13.736Z,61.83
2022-11-21T13:05:29.062Z,69.97
2022-11-21T13:10:32.479Z,65.00
2022-11-21T13:15:43.546Z,66.93
2022-11-21T13:20:51.475Z,71.07
2022-11-21T13:25:53.864Z,70.93
2022-11-21T13:30:57.157Z,70.60
2022-11-21T13:36:00.267Z,74.93
2022-11-21T13:41:21.311Z,69.83
2022-11-21T13:47:02.600Z,71.50
2022-11-21T13:52:19.863Z,80.80
2022-11-21T13:57:57.415Z,85.43
2022-11-21T14:03:33.371Z,83.87
2022-11-21T14:08:35.973Z,97.40
2022-11-21T14:13:38.955Z,87.80
2022-11-21T14:18:44.766Z,99.23
2022-11-21T14:23:48.266Z,85.03
2022-11-21T14:28:50.591Z,103.07
2022-11-21T14:33:58.432Z,96.17
2022-11-21T14:44:32.023Z,87.03
2022-11-21T14:49:34.541Z,93.13
2022-11-21T14:55:00.295Z,93.60
2022-11-21T15:00:10.203Z,92.00
2022-11-21T15:05:28.999Z,93.57
2022-11-21T15:10:39.146Z,87.27
2022-11-21T15:15:49.067Z,101.43
2022-11-21T15:20:57.152Z,96.20
2022-11-21T15:26:01.517Z,95.60
2022-11-21T15:31:18.435Z,94.77
2022-11-21T15:36:20.802Z,102.70
2022-11-21T15:41:30.381Z,107.00
2022-11-21T15:46:44.181Z,102.37
2022-11-21T15:57:12.770Z,107.60
2022-11-21T16:02:18.934Z,109.10
2022-11-21T16:07:21.522Z,103.57
2022-11-21T16:12:24.060Z,99.53
2022-11-21T16:17:28.477Z,105.90
2022-11-21T16:22:31.793Z,98.47
2022-11-21T16:27:34.177Z,96.90
2022-11-21T16:32:36.639Z,102.97
2022-11-21T16:37:42.431Z,110.50
2022-11-21T16:42:44.842Z,102.93
2022-11-21T16:47:49.106Z,122.47
2022-11-21T16:52:51.896Z,122.30
2022-11-21T16:57:57.934Z,107.93
2022-11-21T17:03:04.750Z,112.10
2022-11-21T17:08:07.271Z,102.30
2022-11-21T17:13:09.678Z,110.87
2022-11-21T17:18:16.686Z,104.77
2022-11-21T17:23:20.473Z,106.90
2022-11-21T17:28:24.930Z,97.93
2022-11-21T17:33:37.462Z,112.00
2022-11-21T17:38:47.088Z,114.40
2022-11-21T17:44:06.700Z,105.63
2022-11-21T17:49:14.252Z,122.50
2022-11-21T17:54:19.277Z,117.30
2022-11-21T19:04:20.712Z,114.53
2022-11-21T20:03:14.642Z,77.50
2022-11-21T20:08:18.180Z,58.40
2022-11-21T20:13:20.998Z,62.50
2022-11-21T20:18:23.820Z,72.77
2022-11-21T20:23:26.296Z,67.10
2022-11-21T20:28:28.903Z,58.37
2022-11-21T20:33:35.366Z,51.47
2022-11-21T20:38:38.786Z,52.07
2022-11-21T20:44:20.022Z,42.73
2022-11-21T20:49:03.844Z,42.37
2022-11-21T20:54:06.479Z,38.23
2022-11-21T20:59:09.270Z,40.60
2022-11-21T21:04:12.224Z,40.23
2022-11-21T21:09:14.794Z,51.13
2022-11-21T21:14:17.263Z,48.73
2022-11-21T21:19:20.630Z,89.43
2022-11-21T21:24:25.923Z,78.73
2022-11-21T21:29:28.756Z,35.23
2022-11-21T21:34:32.759Z,37.20
2022-11-21T21:39:35.672Z,67.67
2022-11-21T21:44:38.279Z,40.57
2022-11-21T21:49:41.134Z,30.90
2022-11-21T21:54:44.998Z,32.80
2022-11-21T21:59:47.410Z,42.27
2022-11-21T22:04:52.118Z,35.87
2022-11-21T22:09:55.585Z,44.57
2022-11-21T22:14:58.055Z,44.23
2022-11-21T22:20:00.485Z,39.90
2022-11-21T22:25:03.065Z,89.03
2022-11-21T22:30:05.923Z,100.00
2022-11-21T22:35:08.481Z,64.57
2022-11-21T22:40:12.012Z,41.07
2022-11-21T22:45:14.542Z,86.38
2022-11-21T22:50:17.050Z,49.67
2022-11-21T22:55:19.624Z,47.47
2022-11-21T23:00:22.189Z,49.17
2022-11-21T23:05:25.031Z,57.80
2022-11-21T23:10:27.522Z,51.77
2022-11-21T23:15:30.121Z,49.60
2022-11-21T23:20:32.774Z,63.37
2022-11-21T23:25:35.326Z,56.27
2022-11-21T23:30:37.928Z,65.73
2022-11-21T23:35:40.419Z,65.33
2022-11-21T23:40:46.207Z,55.70
2022-11-21T23:45:52.711Z,59.30
2022-11-21T23:50:55.618Z,61.93
2022-11-21T23:55:58.023Z,59.93
